Arlington, VA

9:17 PM EST on December 03, 2016 (GMT -0500)
Lyon Park | | Change Station

Elev 282 ft 38.88 °N, 77.10 °W | Updated 12 seconds ago

Overcast
Overcast
41.5 °F
Feels Like 42 °F
N
0.2
Wind Variable Wind from SW
Gusts 2.5 mph

Today
High -- | Low -- °F
--% Chance of Precip.
Yesterday
High -- | Low -- °F
Precip. -- in
Pressure 30.26 in
Visibility 10.0 miles
Clouds Few 4500 ft
Overcast 25000 ft
Windchill 42 °F
Dew Point 32 °F
Humidity 70%
Rainfall 0.00 in
Snow Depth Not available.
7:10 AM 4:46 PM
Waxing Crescent, 19% visible
METAR KDCA 040152Z 31013KT 10SM FEW045 OVC250 06/M02 A3026 RMK AO2 SLP246 T00611017
Pressure 30.26 in
Visibility 10.0 miles
Clouds Few 4500 ft
Overcast 25000 ft
Windchill 42 °F
Dew Point 32 °F
Humidity 70%
Rainfall 0.00 in
Snow Depth Not available.
7:10 AM 4:46 PM
Waxing Crescent, 19% visible
METAR KDCA 040152Z 31013KT 10SM FEW045 OVC250 06/M02 A3026 RMK AO2 SLP246 T00611017

10-Day Weather Forecast

Almanac

Astronomy

Dec. 03, 2016 Rise Set
Actual Time
Civil Twilight
Nautical Twilight
Astronomical Twilight
Moon
Length of Visible Light
Length of Day
Tomorrow will be .
, % of the Moon is Illuminated

Today's Extremes

State Highs State Lows

Community

WunderPhotos

Upload Photos

1,955,560 photos uploaded!

WunderBlog® & News

Nearby

Air Quality

  Air Quality AQ Index Pollutant
Not available.

Snow Depth

Station Depth Elevation

Earthquake Activity

City Distance Mag. Time & Date
Minimum magnitude displayed is 2.5.

Coastal Water Temperatures

Place Temperature

Stations

Nearby Weather Stations

Station Location Temp. Windchill Dew Point Humidity Wind Precip. Elev Updated Type
                   

Watches & Warnings

There are currently no watches in effect.